Terminal Aerodrome Forecast
Issued by NWS Corpus Christi, TX

Home | Current Version | Previous Version | Text Only | Print | Product List | Glossary On
Versions: 1 2 3 4 5 6 7 8 9 10 11 12
000
FTUS44 KCRP 281100
TAFVCT
TAF
KVCT 281127Z 2812/2912 09004KT P6SM SKC
      TEMPO 2812/2814 5SM BR
     FM281600 18011G18KT P6SM SCT025 BKN050
      TEMPO 2816/2818 BKN025
     FM282000 17012KT P6SM SCT035
     FM290200 17007KT P6SM SCT018
     FM290800 16005KT P6SM BKN015=

USA.gov is the U.S. government's official web portal to all federal, state and local government web resources and services.